createdAt,value
2023-03-31T00:01:22.759Z,408.86
2023-03-31T00:07:10.176Z,408.10
2023-03-31T00:13:03.673Z,410.85
2023-03-31T00:18:46.422Z,411.91
2023-03-31T00:24:33.962Z,416.06
2023-03-31T00:30:16.462Z,416.57
2023-03-31T00:36:05.022Z,415.06
2023-03-31T00:41:52.521Z,415.34
2023-03-31T00:47:35.389Z,416.01
2023-03-31T00:58:44.753Z,416.95
2023-03-31T01:04:03.671Z,416.57
2023-03-31T01:09:22.639Z,418.36
2023-03-31T01:15:09.824Z,419.33
2023-03-31T01:20:52.250Z,419.87
2023-03-31T01:26:08.667Z,420.91
2023-03-31T01:31:48.394Z,421.19
2023-03-31T01:37:01.669Z,421.69
2023-03-31T01:42:49.329Z,423.24
2023-03-31T01:48:06.105Z,423.18
2023-03-31T01:53:19.840Z,423.40
2023-03-31T01:58:27.224Z,423.83
2023-03-31T02:03:34.916Z,423.49
2023-03-31T02:08:42.490Z,424.22
2023-03-31T02:13:50.036Z,425.22
2023-03-31T02:18:59.482Z,426.62
2023-03-31T02:24:07.200Z,427.18
2023-03-31T02:29:14.700Z,427.84
2023-03-31T02:34:22.422Z,427.64
2023-03-31T02:39:30.012Z,426.19
2023-03-31T02:44:37.759Z,426.86
2023-03-31T02:49:56.638Z,427.09
2023-03-31T02:55:08.952Z,428.50
2023-03-31T03:00:16.567Z,429.45
2023-03-31T03:06:03.849Z,430.65
2023-03-31T03:11:44.428Z,431.46
2023-03-31T03:17:26.952Z,431.88
2023-03-31T03:23:09.645Z,432.75
2023-03-31T03:28:52.029Z,433.33
2023-03-31T03:33:59.551Z,435.81
2023-03-31T03:39:42.394Z,437.79
2023-03-31T03:45:29.655Z,439.31
2023-03-31T03:51:12.976Z,440.07
2023-03-31T03:56:20.601Z,439.40
2023-03-31T04:02:07.890Z,441.44
2023-03-31T04:07:50.169Z,444.12
2023-03-31T04:13:35.644Z,444.62
2023-03-31T04:19:18.128Z,444.05
2023-03-31T04:25:00.523Z,447.95
2023-03-31T04:35:55.915Z,452.39
2023-03-31T04:41:43.110Z,452.51
2023-03-31T04:47:40.699Z,453.78
2023-03-31T04:53:23.157Z,457.18
2023-03-31T05:04:11.724Z,459.88
2023-03-31T05:09:28.704Z,461.45
2023-03-31T05:15:15.930Z,462.00
2023-03-31T05:20:26.614Z,462.60
2023-03-31T05:26:06.859Z,463.81
2023-03-31T05:31:21.257Z,464.51
2023-03-31T05:36:53.259Z,465.66
2023-03-31T05:41:56.041Z,466.00
2023-03-31T05:47:08.123Z,469.27
2023-03-31T05:52:15.615Z,468.60
2023-03-31T05:57:23.094Z,470.76
2023-03-31T06:02:30.512Z,470.41
2023-03-31T06:07:37.800Z,471.62
2023-03-31T06:12:45.430Z,473.48
2023-03-31T06:17:52.921Z,474.63
2023-03-31T06:23:04.983Z,475.56
2023-03-31T06:28:12.410Z,475.48
2023-03-31T06:33:19.571Z,477.12
2023-03-31T06:38:26.850Z,474.69
2023-03-31T06:43:34.135Z,474.26
2023-03-31T06:48:41.437Z,471.68
2023-03-31T06:53:48.580Z,471.25
2023-03-31T06:58:55.979Z,472.34
2023-03-31T07:04:03.169Z,470.05
2023-03-31T07:09:10.597Z,469.88
2023-03-31T07:14:18.361Z,468.86
2023-03-31T07:19:25.503Z,470.83
2023-03-31T07:24:32.766Z,470.72
2023-03-31T07:29:39.979Z,471.50
2023-03-31T07:34:47.143Z,472.30
2023-03-31T07:39:54.338Z,470.55
2023-03-31T07:45:01.543Z,467.23
2023-03-31T07:50:08.697Z,464.53
2023-03-31T07:55:15.894Z,456.81
2023-03-31T08:00:23.087Z,451.31
2023-03-31T08:05:30.352Z,455.20
2023-03-31T08:10:37.541Z,457.23
2023-03-31T08:15:44.851Z,459.49
2023-03-31T08:20:52.010Z,453.79
2023-03-31T08:25:59.217Z,456.35
2023-03-31T08:31:06.407Z,461.35
2023-03-31T08:36:13.700Z,460.44
2023-03-31T08:41:20.850Z,462.02
2023-03-31T08:46:28.242Z,461.71
2023-03-31T08:51:35.418Z,463.05
2023-03-31T08:56:42.754Z,460.65
2023-03-31T09:01:56.236Z,461.87
2023-03-31T09:06:56.983Z,459.98
2023-03-31T09:12:04.162Z,462.85
2023-03-31T09:17:14.517Z,466.22
2023-03-31T09:22:21.666Z,465.69
2023-03-31T09:27:28.972Z,464.67
2023-03-31T09:32:36.448Z,467.44
2023-03-31T09:37:43.616Z,468.61
2023-03-31T09:42:50.889Z,465.74
2023-03-31T09:47:58.255Z,468.20
2023-03-31T09:53:05.374Z,466.00
2023-03-31T09:58:12.679Z,465.00
2023-03-31T10:03:19.897Z,464.03
2023-03-31T10:08:27.157Z,464.26
2023-03-31T10:13:34.415Z,461.21
2023-03-31T10:18:41.635Z,463.47
2023-03-31T10:23:48.784Z,465.60
2023-03-31T10:28:56.057Z,461.96
2023-03-31T10:34:03.362Z,465.16
2023-03-31T10:39:10.539Z,464.04
2023-03-31T10:44:17.706Z,467.41
2023-03-31T10:49:24.924Z,470.91
2023-03-31T10:54:32.167Z,470.71
2023-03-31T10:59:39.384Z,469.46
2023-03-31T11:04:46.704Z,473.77
2023-03-31T11:09:53.862Z,478.52
2023-03-31T11:15:01.134Z,481.64
2023-03-31T11:20:08.449Z,480.45
2023-03-31T11:25:15.627Z,477.53
2023-03-31T11:30:22.781Z,479.46
2023-03-31T11:35:30.071Z,478.96
2023-03-31T11:40:37.255Z,477.55
2023-03-31T11:45:44.631Z,476.03
2023-03-31T11:50:51.839Z,478.15
2023-03-31T11:55:59.011Z,478.26
2023-03-31T12:01:06.289Z,481.95
2023-03-31T12:06:13.526Z,481.16
2023-03-31T12:11:20.726Z,482.94
2023-03-31T12:16:28.016Z,482.88
2023-03-31T12:21:35.261Z,482.03
2023-03-31T12:26:42.548Z,483.11
2023-03-31T12:31:49.890Z,482.03
2023-03-31T12:36:57.031Z,485.01
2023-03-31T12:42:04.389Z,484.33
2023-03-31T12:47:11.658Z,484.16
2023-03-31T12:52:18.954Z,484.84
2023-03-31T12:57:26.240Z,484.88
2023-03-31T13:02:33.543Z,484.77
2023-03-31T13:07:40.801Z,484.68
2023-03-31T13:12:48.025Z,482.07
2023-03-31T13:17:55.285Z,475.59
2023-03-31T13:23:02.452Z,472.72
2023-03-31T13:28:09.621Z,469.62
2023-03-31T13:33:18.321Z,477.88
2023-03-31T13:38:24.171Z,476.39
2023-03-31T13:43:31.409Z,475.75
2023-03-31T13:48:38.686Z,478.83
2023-03-31T13:53:45.916Z,481.63
2023-03-31T13:58:53.146Z,483.08
2023-03-31T14:04:00.426Z,484.22
2023-03-31T14:09:07.669Z,478.87
2023-03-31T14:14:14.873Z,480.61
2023-03-31T14:24:29.289Z,467.81
2023-03-31T14:29:36.480Z,461.80
2023-03-31T14:34:43.777Z,471.76
2023-03-31T14:39:50.943Z,476.20
2023-03-31T14:44:58.122Z,475.77
2023-03-31T14:50:07.473Z,476.03
2023-03-31T14:55:12.498Z,480.28
2023-03-31T15:00:19.665Z,478.52
2023-03-31T15:05:26.886Z,481.20
2023-03-31T15:10:34.014Z,479.85
2023-03-31T15:15:41.250Z,480.77
2023-03-31T15:20:48.412Z,483.81
2023-03-31T15:25:55.611Z,480.78
2023-03-31T15:31:10.101Z,482.24
2023-03-31T15:36:09.985Z,484.92
2023-03-31T15:41:17.171Z,485.99
2023-03-31T15:46:24.352Z,483.90
2023-03-31T15:51:31.523Z,482.33
2023-03-31T15:56:38.825Z,481.26
2023-03-31T16:01:46.113Z,478.88
2023-03-31T16:06:53.293Z,477.76
2023-03-31T16:12:00.584Z,478.24
2023-03-31T16:17:07.907Z,478.32
2023-03-31T16:22:15.297Z,477.93
2023-03-31T16:27:22.597Z,478.59
2023-03-31T16:32:29.820Z,472.89
2023-03-31T16:37:37.055Z,467.94
2023-03-31T16:42:44.300Z,468.16
2023-03-31T16:47:53.113Z,468.30
2023-03-31T16:52:58.632Z,468.63
2023-03-31T16:58:05.862Z,470.76
2023-03-31T17:03:14.313Z,470.57
2023-03-31T17:08:21.615Z,468.75
2023-03-31T17:13:28.841Z,471.39
2023-03-31T17:18:36.253Z,471.93
2023-03-31T17:23:43.452Z,469.80
2023-03-31T17:28:50.793Z,470.57
2023-03-31T17:33:58.307Z,472.36
2023-03-31T17:39:05.727Z,470.30
2023-03-31T17:44:13.216Z,470.87
2023-03-31T17:49:21.147Z,474.87
2023-03-31T17:54:28.667Z,472.54
2023-03-31T17:59:37.609Z,473.16
2023-03-31T18:04:43.598Z,471.55
2023-03-31T18:09:51.080Z,469.93
2023-03-31T18:14:58.633Z,470.38
2023-03-31T18:20:06.011Z,469.72
2023-03-31T18:25:13.451Z,471.09
2023-03-31T18:30:20.971Z,470.93
2023-03-31T18:35:28.324Z,470.77
2023-03-31T18:40:35.857Z,471.82
2023-03-31T18:45:43.598Z,470.48
2023-03-31T18:50:51.135Z,472.46
2023-03-31T18:55:58.817Z,472.12
2023-03-31T19:01:06.523Z,473.69
2023-03-31T19:06:14.047Z,474.87
2023-03-31T19:11:21.664Z,472.78
2023-03-31T19:16:29.417Z,471.22
2023-03-31T19:21:37.092Z,471.31
2023-03-31T19:26:44.810Z,470.72
2023-03-31T19:31:52.607Z,464.54
2023-03-31T19:37:00.447Z,461.22
2023-03-31T19:42:08.263Z,459.63
2023-03-31T19:47:16.016Z,456.00
2023-03-31T19:52:23.394Z,453.91
2023-03-31T19:57:30.854Z,457.81
2023-03-31T20:02:38.614Z,459.28
2023-03-31T20:07:46.052Z,461.07
2023-03-31T20:12:53.825Z,460.15
2023-03-31T20:18:01.503Z,461.78
2023-03-31T20:23:09.177Z,459.30
2023-03-31T20:28:16.788Z,459.29
2023-03-31T20:33:24.586Z,460.20
2023-03-31T20:38:31.948Z,459.98
2023-03-31T20:43:39.203Z,458.45
2023-03-31T20:48:46.560Z,459.15
2023-03-31T20:53:53.787Z,458.63
2023-03-31T20:59:01.103Z,460.16
2023-03-31T21:04:08.512Z,460.47
2023-03-31T21:09:15.629Z,460.17
2023-03-31T21:14:22.832Z,460.22
2023-03-31T21:19:30.154Z,460.58
2023-03-31T21:24:37.414Z,462.04
2023-03-31T21:29:44.714Z,461.06
2023-03-31T21:34:52.014Z,458.93
2023-03-31T21:39:59.284Z,458.51
2023-03-31T21:45:06.578Z,459.70
2023-03-31T21:50:13.871Z,458.02
2023-03-31T21:55:21.139Z,459.10
2023-03-31T22:00:28.390Z,459.39
2023-03-31T22:05:35.674Z,460.50
2023-03-31T22:10:42.906Z,460.92
2023-03-31T22:15:50.188Z,462.02
2023-03-31T22:21:39.155Z,461.03
2023-03-31T22:27:35.140Z,460.39
2023-03-31T22:32:53.912Z,461.74
2023-03-31T22:38:36.198Z,463.16
2023-03-31T22:48:57.020Z,463.65
2023-03-31T22:54:18.927Z,463.26
2023-03-31T23:00:33.736Z,462.34
2023-03-31T23:07:11.096Z,462.88
2023-03-31T23:12:09.856Z,462.39
2023-03-31T23:17:24.662Z,462.49
2023-03-31T23:23:10.389Z,460.55
2023-03-31T23:28:53.137Z,462.28
2023-03-31T23:34:14.667Z,461.36
2023-03-31T23:40:01.889Z,459.46
2023-03-31T23:45:49.349Z,462.08
2023-03-31T23:52:21.651Z,461.40
2023-03-31T23:57:06.047Z,463.41
